Time;durP1;ratioP1;P1;durP2;ratioP2;P2;SDS_P1;SDS_P2;PMS_P1;PMS_P2;Temp;Humidity;BMP_temperature;BMP_pressure;BME280_temperature;BME280_humidity;BME280_pressure;Samples;Min_cycle;Max_cycle;Signal;HPM_P1;HPM_P2
2023/06/02 00:01:50;;;;;;;6.40;5.10;;;;;;;13.97;75.83;94686.81;5025092;28;20515;-78
2023/06/02 00:04:17;;;;;;;6.95;5.00;;;;;;;13.88;76.05;94686.91;5042925;28;20036;-79
2023/06/02 00:06:45;;;;;;;6.47;4.97;;;;;;;13.94;75.70;94694.13;5042371;28;20027;-79
2023/06/02 00:09:11;;;;;;;9.07;5.43;;;;;;;13.88;75.92;94681.69;5024196;28;20037;-79
2023/06/02 00:11:36;;;;;;;7.63;5.70;;;;;;;13.85;76.46;94681.00;5019672;28;20434;-79
2023/06/02 00:14:03;;;;;;;9.18;5.53;;;;;;;13.77;76.89;94686.16;5033444;28;20026;-78
2023/06/02 00:16:29;;;;;;;7.38;5.50;;;;;;;13.72;77.52;94688.38;5035713;28;20482;-79
2023/06/02 00:18:56;;;;;;;6.20;5.45;;;;;;;13.76;77.17;94671.47;5047168;28;20048;-79
2023/06/02 00:21:22;;;;;;;7.10;5.25;;;;;;;13.80;77.04;94690.25;5033326;28;20064;-79
2023/06/02 00:23:48;;;;;;;6.80;5.32;;;;;;;13.79;77.37;94684.22;5031300;28;20043;-80
2023/06/02 00:26:14;;;;;;;7.47;5.63;;;;;;;13.85;76.85;94683.59;5005211;28;20108;-79
2023/06/02 00:28:39;;;;;;;7.22;5.05;;;;;;;13.88;76.89;94679.06;5017047;28;20131;-80
2023/06/02 00:31:05;;;;;;;5.72;4.97;;;;;;;13.89;76.80;94684.13;5034705;28;20034;-79
2023/06/02 00:33:30;;;;;;;6.72;5.13;;;;;;;13.84;76.96;94686.34;5011406;28;20031;-79
2023/06/02 00:35:56;;;;;;;6.63;5.18;;;;;;;13.84;76.62;94671.50;5052968;28;20039;-78
2023/06/02 00:38:21;;;;;;;5.88;5.20;;;;;;;13.73;76.69;94668.31;5052613;28;20033;-79
2023/06/02 00:40:47;;;;;;;7.60;5.07;;;;;;;13.92;76.65;94683.81;5036187;28;20033;-80
2023/06/02 00:43:12;;;;;;;5.90;5.05;;;;;;;13.86;76.26;94673.97;5025792;28;20504;-79
2023/06/02 00:45:38;;;;;;;5.45;4.85;;;;;;;13.74;76.54;94660.34;4999783;28;20484;-80
2023/06/02 00:48:03;;;;;;;6.45;5.13;;;;;;;13.86;75.75;94674.78;4999828;28;20397;-79
2023/06/02 00:50:29;;;;;;;6.50;5.70;;;;;;;13.69;76.34;94667.78;5033174;28;20035;-80
2023/06/02 00:52:57;;;;;;;5.60;5.07;;;;;;;13.85;76.27;94683.59;5030605;28;20039;-79
2023/06/02 00:55:22;;;;;;;6.05;4.63;;;;;;;13.84;76.50;94681.13;5018769;28;20032;-79
2023/06/02 00:57:48;;;;;;;7.90;5.63;;;;;;;13.95;75.70;94682.69;5052421;28;20431;-80
2023/06/02 01:00:14;;;;;;;5.70;4.80;;;;;;;13.65;76.00;94650.81;5034904;28;20032;-78
2023/06/02 01:02:39;;;;;;;10.70;4.78;;;;;;;13.60;76.28;94663.47;5052247;28;20051;-79
2023/06/02 01:05:12;;;;;;;6.28;5.10;;;;;;;13.78;76.80;94679.13;5035396;28;20025;-78
2023/06/02 01:07:39;;;;;;;6.57;5.40;;;;;;;13.74;76.65;94673.41;5036145;28;20481;-79
2023/06/02 01:10:05;;;;;;;7.15;5.13;;;;;;;13.66;76.84;94667.28;5042020;28;20645;-79
2023/06/02 01:12:31;;;;;;;5.95;5.13;;;;;;;13.66;77.46;94678.53;5015743;28;20412;-78
2023/06/02 01:14:56;;;;;;;5.90;5.30;;;;;;;13.47;77.13;94648.19;5015051;28;20049;-80
2023/06/02 01:17:35;;;;;;;5.53;4.93;;;;;;;13.60;77.17;94676.53;4999276;28;20030;-79
2023/06/02 01:20:03;;;;;;;5.95;5.20;;;;;;;13.55;77.51;94676.16;5016275;28;20033;-80
2023/06/02 01:22:30;;;;;;;5.95;5.15;;;;;;;13.53;77.59;94670.25;5052046;28;20064;-79
2023/06/02 01:24:58;;;;;;;7.60;5.20;;;;;;;13.42;77.33;94655.63;5035835;28;20100;-78
2023/06/02 01:27:23;;;;;;;6.90;5.53;;;;;;;13.51;77.83;94673.03;5033710;28;20087;-78
2023/06/02 01:29:51;;;;;;;5.43;4.93;;;;;;;13.16;77.86;94637.25;5032097;28;20491;-79
2023/06/02 01:32:19;;;;;;;6.28;5.07;;;;;;;13.36;77.99;94666.66;5033789;28;20021;-79
2023/06/02 01:34:48;;;;;;;7.57;5.50;;;;;;;13.28;77.86;94646.53;5051834;28;20121;-79
2023/06/02 01:37:13;;;;;;;6.63;5.82;;;;;;;13.56;77.74;94662.94;5017855;28;20036;-79
2023/06/02 01:39:39;;;;;;;8.30;5.03;;;;;;;13.43;77.82;94652.06;5034953;28;20544;-78
2023/06/02 01:42:05;;;;;;;6.63;5.40;;;;;;;13.29;78.28;94642.97;5035175;28;20470;-79
2023/06/02 01:44:30;;;;;;;6.82;5.20;;;;;;;13.57;77.95;94656.75;5035139;28;20036;-78
2023/06/02 01:46:56;;;;;;;6.10;5.20;;;;;;;13.56;77.91;94662.13;5037813;28;20033;-78
2023/06/02 01:49:21;;;;;;;6.30;5.25;;;;;;;13.43;78.00;94638.19;5031374;28;20033;-79
2023/06/02 01:51:47;;;;;;;5.78;5.18;;;;;;;13.42;78.56;94655.63;5033146;28;20092;-79
2023/06/02 01:54:12;;;;;;;7.03;6.30;;;;;;;13.30;78.99;94655.03;5031507;28;20411;-79
2023/06/02 01:56:38;;;;;;;6.35;5.63;;;;;;;13.30;79.09;94647.19;5049908;28;20532;-79
2023/06/02 01:59:04;;;;;;;7.70;6.05;;;;;;;13.29;79.32;94642.97;5051098;28;20032;-79
2023/06/02 02:01:30;;;;;;;12.85;6.63;;;;;;;13.30;79.21;94652.41;5034790;28;20029;-79
2023/06/02 02:03:56;;;;;;;7.32;6.13;;;;;;;13.20;79.36;94633.34;5030124;28;20029;-78
2023/06/02 02:06:29;;;;;;;6.75;6.05;;;;;;;13.26;79.69;94647.63;5031342;28;20171;-78
2023/06/02 02:08:58;;;;;;;7.20;6.38;;;;;;;13.13;79.86;94629.72;5031197;28;20034;-79
2023/06/02 02:11:23;;;;;;;7.90;6.90;;;;;;;13.32;79.93;94654.88;5031166;28;20053;-78
2023/06/02 02:13:49;;;;;;;7.68;6.65;;;;;;;13.29;80.15;94642.97;5044616;28;20435;-79
2023/06/02 02:16:15;;;;;;;8.02;6.82;;;;;;;13.25;80.52;94651.19;5049182;28;20052;-78
2023/06/02 02:18:41;;;;;;;8.95;6.80;;;;;;;13.13;80.36;94646.19;5048732;28;20711;-79
2023/06/02 02:21:07;;;;;;;10.55;6.97;;;;;;;13.22;80.62;94659.31;5050944;28;20502;-80
2023/06/02 02:23:32;;;;;;;7.53;6.57;;;;;;;13.22;80.34;94647.09;5016455;28;20091;-79
2023/06/02 02:25:58;;;;;;;9.18;7.30;;;;;;;13.05;80.87;94642.66;5049893;28;20036;-79
2023/06/02 02:28:23;;;;;;;9.40;6.82;;;;;;;13.08;81.11;94647.59;5033918;28;20044;-79
2023/06/02 02:30:49;;;;;;;7.85;6.95;;;;;;;13.11;80.97;94647.28;5017807;28;20056;-79
2023/06/02 02:33:14;;;;;;;9.32;6.80;;;;;;;13.12;81.07;94628.91;5024388;28;20098;-79
2023/06/02 02:35:41;;;;;;;9.80;7.60;;;;;;;13.19;80.84;94652.59;5014371;28;20487;-80
2023/06/02 02:38:06;;;;;;;7.97;7.18;;;;;;;13.18;80.99;94645.75;5031867;28;20029;-80
2023/06/02 02:40:32;;;;;;;9.35;7.05;;;;;;;13.25;80.75;94644.19;5030818;28;20311;-79
2023/06/02 02:42:57;;;;;;;11.23;8.02;;;;;;;13.39;80.51;94650.69;5030647;28;20029;-79
2023/06/02 02:45:23;;;;;;;8.40;7.45;;;;;;;13.08;80.80;94624.13;4997901;28;20387;-80
2023/06/02 02:47:48;;;;;;;8.05;7.13;;;;;;;13.26;80.35;94622.38;4997825;28;20103;-79
2023/06/02 02:50:14;;;;;;;8.60;6.90;;;;;;;13.22;79.93;94615.78;5030653;28;20403;-78
2023/06/02 02:52:39;;;;;;;7.82;6.55;;;;;;;13.39;79.88;94641.09;4997738;28;20055;-79
2023/06/02 02:55:05;;;;;;;8.10;6.85;;;;;;;13.24;79.92;94632.13;5013967;28;20392;-79
2023/06/02 02:57:31;;;;;;;8.15;6.78;;;;;;;13.28;80.22;94641.31;5031431;28;20034;-79
2023/06/02 02:59:57;;;;;;;7.57;6.78;;;;;;;13.31;79.70;94622.75;5030650;28;20466;-79
2023/06/02 03:02:22;;;;;;;8.23;6.90;;;;;;;13.39;79.60;94635.88;5033807;28;20087;-79
2023/06/02 03:04:51;;;;;;;8.05;6.47;;;;;;;13.30;79.57;94639.38;5050433;28;20028;-79
2023/06/02 03:07:17;;;;;;;8.25;6.70;;;;;;;13.31;79.66;94645.41;5049985;28;20464;-78
2023/06/02 03:09:43;;;;;;;10.85;6.43;;;;;;;13.30;79.67;94636.75;5033444;28;20090;-78
2023/06/02 03:12:08;;;;;;;7.53;6.72;;;;;;;13.37;79.49;94642.19;5017086;28;20037;-79
2023/06/02 03:14:34;;;;;;;9.35;7.35;;;;;;;13.25;79.15;94630.31;5051371;28;20133;-79
2023/06/02 03:17:00;;;;;;;7.03;6.32;;;;;;;13.43;79.02;94646.84;5033462;28;20086;-79
2023/06/02 03:19:26;;;;;;;9.05;7.25;;;;;;;13.28;79.44;94640.47;5050209;28;20044;-79
2023/06/02 03:21:52;;;;;;;7.55;6.25;;;;;;;13.37;79.06;94643.03;5017440;28;20044;-79
2023/06/02 03:24:18;;;;;;;8.43;6.88;;;;;;;13.37;79.10;94645.66;5017170;28;20170;-78
2023/06/02 03:26:44;;;;;;;8.15;6.97;;;;;;;13.35;79.03;94644.97;5033423;28;20064;-79
2023/06/02 03:29:10;;;;;;;9.10;6.38;;;;;;;13.45;78.62;94644.88;5016978;28;20124;-79
2023/06/02 03:31:36;;;;;;;10.75;6.93;;;;;;;13.28;78.75;94623.03;5033373;28;20029;-80
2023/06/02 03:34:05;;;;;;;7.53;6.47;;;;;;;13.34;79.11;94645.91;5017309;28;20033;-79
2023/06/02 03:36:34;;;;;;;8.52;6.25;;;;;;;13.38;78.52;94638.63;5030658;28;20511;-80
2023/06/02 03:39:02;;;;;;;8.50;6.30;;;;;;;13.53;77.70;94634.53;5018341;28;20450;-79
2023/06/02 03:41:27;;;;;;;13.07;6.47;;;;;;;13.24;77.89;94610.44;5026062;28;20028;-79
2023/06/02 03:43:53;;;;;;;6.25;5.47;;;;;;;13.45;78.12;94631.03;5055220;28;20048;-79
2023/06/02 03:46:18;;;;;;;7.97;6.43;;;;;;;13.37;77.92;94630.00;5036784;28;20041;-79
2023/06/02 03:48:44;;;;;;;7.40;6.53;;;;;;;13.47;78.05;94644.75;5020704;28;20048;-79
2023/06/02 03:51:09;;;;;;;8.30;6.10;;;;;;;13.39;78.08;94630.66;5054022;28;20033;-79
2023/06/02 03:53:35;;;;;;;7.03;5.88;;;;;;;13.36;78.33;94633.56;5053808;28;20418;-79
2023/06/02 03:56:00;;;;;;;7.55;5.93;;;;;;;13.31;78.20;94617.53;5036959;28;20670;-79
2023/06/02 03:58:26;;;;;;;7.85;6.60;;;;;;;13.26;78.65;94624.16;5037304;28;20032;-80
2023/06/02 04:00:51;;;;;;;6.55;5.88;;;;;;;13.44;78.37;94621.56;5020795;28;20037;-80
2023/06/02 04:03:16;;;;;;;8.02;6.15;;;;;;;13.44;77.90;94616.34;5053527;28;20510;-79
2023/06/02 04:05:42;;;;;;;7.70;5.93;;;;;;;13.53;78.19;94631.09;5036878;28;20028;-79
2023/06/02 04:08:07;;;;;;;7.65;6.45;;;;;;;13.72;77.60;94635.34;5036989;28;20029;-80
2023/06/02 04:10:33;;;;;;;7.30;5.88;;;;;;;13.76;77.02;94621.88;5020359;28;20458;-79
2023/06/02 04:12:59;;;;;;;7.85;5.97;;;;;;;14.05;76.14;94625.97;5053403;28;20040;-79
2023/06/02 04:15:24;;;;;;;7.25;6.07;;;;;;;14.07;75.83;94621.44;5020081;28;20025;-80
2023/06/02 04:17:50;;;;;;;8.55;6.50;;;;;;;14.22;75.13;94621.69;5053227;28;20036;-80
2023/06/02 04:20:15;;;;;;;6.53;5.82;;;;;;;14.29;74.96;94626.16;5010967;28;20173;-79
2023/06/02 04:22:41;;;;;;;8.40;6.25;;;;;;;14.34;74.52;94614.41;5017005;28;20052;-79
2023/06/02 04:25:07;;;;;;;6.72;6.03;;;;;;;14.56;74.09;94624.34;5032982;28;20412;-80
2023/06/02 04:27:33;;;;;;;8.50;5.93;;;;;;;14.56;73.73;94613.09;5033370;28;20038;-79
2023/06/02 04:29:58;;;;;;;7.82;5.78;;;;;;;14.78;73.15;94622.97;5016774;28;20111;-79
2023/06/02 04:32:24;;;;;;;6.57;5.53;;;;;;;14.82;72.77;94613.00;5032979;28;20049;-80
2023/06/02 04:34:50;;;;;;;6.88;6.15;;;;;;;15.07;72.28;94617.38;5016471;28;20056;-79
2023/06/02 04:37:15;;;;;;;10.32;5.88;;;;;;;15.20;71.53;94622.94;5051322;28;20025;-78
2023/06/02 04:39:46;;;;;;;6.85;5.65;;;;;;;15.19;70.91;94603.00;5035693;28;20060;-79
2023/06/02 04:42:12;;;;;;;;;;;;;;;15.35;70.83;94620.56;5018014;28;20048;-79
2023/06/02 04:44:39;;;;;;;5.53;5.03;;;;;;;15.41;70.40;94625.13;5033856;28;19917;-77
2023/06/02 04:47:05;;;;;;;7.88;5.50;;;;;;;15.37;70.45;94608.09;5032278;28;20067;-81
2023/06/02 04:49:31;;;;;;;11.70;5.45;;;;;;;15.42;70.12;94610.25;5018504;28;20033;-77
2023/06/02 04:51:56;;;;;;;8.50;5.65;;;;;;;15.61;70.13;94627.44;5016053;28;20083;-80
2023/06/02 04:54:22;;;;;;;7.00;5.50;;;;;;;15.72;69.98;94626.34;5021268;28;20477;-79
2023/06/02 04:56:47;;;;;;;6.13;5.53;;;;;;;15.62;70.64;94623.84;5018125;28;20032;-80
2023/06/02 04:59:13;;;;;;;5.80;5.30;;;;;;;15.75;69.98;94615.53;5036645;28;20041;-80
2023/06/02 05:01:38;;;;;;;11.13;6.53;;;;;;;16.06;68.51;94624.38;5037772;28;20025;-80
2023/06/02 05:04:04;;;;;;;8.77;6.30;;;;;;;16.24;67.72;94625.97;5049994;28;20028;-80
2023/06/02 05:06:30;;;;;;;8.63;6.30;;;;;;;16.44;68.09;94624.66;5049340;28;20040;-80
2023/06/02 05:08:55;;;;;;;10.02;6.72;;;;;;;16.44;67.71;94621.22;5050826;28;20033;-80
2023/06/02 05:11:21;;;;;;;10.15;6.65;;;;;;;16.42;68.31;94641.53;5050123;28;20061;-79
2023/06/02 05:13:46;;;;;;;9.25;6.63;;;;;;;16.40;67.98;94619.91;5051995;28;20033;-80
2023/06/02 05:16:12;;;;;;;8.00;6.70;;;;;;;16.42;67.95;94647.59;5052390;28;20033;-80
2023/06/02 05:18:37;;;;;;;9.50;6.50;;;;;;;16.84;66.28;94643.09;5051012;28;20026;-80
2023/06/02 05:21:03;;;;;;;9.65;6.18;;;;;;;17.09;64.48;94646.44;5050219;28;20450;-79
2023/06/02 05:23:28;;;;;;;8.25;6.25;;;;;;;17.14;65.82;94620.50;5051138;28;20090;-80
2023/06/02 05:25:54;;;;;;;8.15;6.88;;;;;;;17.19;65.58;94613.75;5033631;28;20029;-79
2023/06/02 05:28:19;;;;;;;8.90;5.93;;;;;;;17.36;65.77;94635.47;5033610;28;20033;-79
2023/06/02 05:30:45;;;;;;;10.38;6.45;;;;;;;17.20;66.22;94636.34;5033059;28;20037;-80
2023/06/02 05:33:10;;;;;;;9.10;6.00;;;;;;;17.40;65.52;94634.13;5050822;28;20033;-80
2023/06/02 05:35:36;;;;;;;7.30;5.95;;;;;;;17.70;64.84;94636.88;5018849;28;20529;-80
2023/06/02 05:38:02;;;;;;;6.15;5.45;;;;;;;18.15;62.18;94626.56;5035256;28;20087;-80
2023/06/02 05:40:27;;;;;;;7.90;5.53;;;;;;;18.34;61.09;94630.50;5035092;28;20028;-80
2023/06/02 05:42:53;;;;;;;10.18;6.20;;;;;;;18.47;61.21;94633.31;5035283;28;20040;-80
2023/06/02 05:45:18;;;;;;;8.50;6.05;;;;;;;18.65;61.94;94623.25;5051800;28;20021;-77
2023/06/02 05:47:44;;;;;;;8.40;5.85;;;;;;;18.55;60.55;94633.22;5024773;28;20029;-77
2023/06/02 05:50:11;;;;;;;7.85;6.50;;;;;;;18.41;61.39;94636.66;5044812;28;20029;-77
2023/06/02 05:52:36;;;;;;;9.00;6.50;;;;;;;18.25;62.38;94641.09;5033132;28;20056;-78
2023/06/02 05:55:02;;;;;;;10.30;5.68;;;;;;;18.63;61.07;94633.13;5034644;28;20060;-78
2023/06/02 05:57:27;;;;;;;7.20;5.97;;;;;;;18.84;60.04;94626.38;5042708;28;20044;-77
2023/06/02 05:59:53;;;;;;;9.73;6.22;;;;;;;18.69;59.68;94628.97;5045332;28;20467;-76
2023/06/02 06:02:18;;;;;;;8.05;6.18;;;;;;;18.55;60.72;94633.22;5047378;28;20439;-77
2023/06/02 06:04:44;;;;;;;8.10;6.78;;;;;;;18.12;61.80;94625.09;5040024;28;20037;-76
2023/06/02 06:07:09;;;;;;;7.78;6.90;;;;;;;18.20;61.42;94640.78;4997726;28;20037;-76
2023/06/02 06:09:35;;;;;;;7.25;6.00;;;;;;;18.45;60.47;94633.50;5016112;28;20032;-76
2023/06/02 06:12:03;;;;;;;7.00;6.03;;;;;;;18.85;59.21;94638.53;5030696;28;20510;-76
2023/06/02 06:14:28;;;;;;;7.47;6.57;;;;;;;19.00;58.55;94636.72;5031488;28;20140;-77
2023/06/02 06:16:54;;;;;;;11.20;6.45;;;;;;;18.82;60.56;94638.91;5048859;28;20041;-76
2023/06/02 06:19:19;;;;;;;9.23;6.75;;;;;;;18.75;61.01;94638.81;5041197;28;20527;-76
2023/06/02 06:21:45;;;;;;;7.38;6.25;;;;;;;18.71;61.24;94643.56;5045395;28;20641;-76
2023/06/02 06:24:10;;;;;;;8.35;6.60;;;;;;;18.93;59.77;94641.88;5028501;28;20032;-76
2023/06/02 06:26:36;;;;;;;10.40;5.90;;;;;;;18.84;58.50;94642.97;5030851;28;20142;-76
2023/06/02 06:29:03;;;;;;;11.23;6.05;;;;;;;18.97;59.15;94647.59;5011343;28;20034;-76
2023/06/02 06:31:34;;;;;;;9.10;5.88;;;;;;;19.55;56.53;94639.78;5046874;28;20043;-77
2023/06/02 06:34:00;;;;;;;8.13;5.95;;;;;;;19.83;55.07;94639.88;5042796;28;20233;-77
2023/06/02 06:36:25;;;;;;;6.75;5.78;;;;;;;20.07;54.82;94654.53;5047692;28;20033;-75
2023/06/02 06:38:51;;;;;;;7.82;5.32;;;;;;;20.21;54.68;94643.09;5046135;28;20040;-76
2023/06/02 06:41:17;;;;;;;7.25;5.30;;;;;;;20.20;55.76;94625.63;5042666;28;20041;-76
2023/06/02 06:43:43;;;;;;;10.80;5.80;;;;;;;20.24;55.82;94641.88;5008672;28;20439;-77
2023/06/02 06:46:08;;;;;;;8.55;5.90;;;;;;;20.49;54.80;94640.44;5040971;28;20036;-75
2023/06/02 06:48:33;;;;;;;10.38;5.90;;;;;;;19.98;55.04;94634.56;5042775;28;20435;-73
2023/06/02 06:50:59;;;;;;;7.72;5.95;;;;;;;20.58;54.40;94640.34;5030482;28;20037;-74
2023/06/02 06:53:25;;;;;;;7.05;5.50;;;;;;;20.68;53.17;94639.00;5043288;28;20048;-74
2023/06/02 06:55:51;;;;;;;6.55;5.05;;;;;;;20.67;53.81;94637.38;5046482;28;20499;-74
2023/06/02 06:58:16;;;;;;;7.85;5.47;;;;;;;20.73;54.22;94625.22;5024448;28;20036;-75
2023/06/02 07:00:42;;;;;;;7.88;6.03;;;;;;;20.16;54.70;94613.00;5035392;28;20487;-74
2023/06/02 07:03:07;;;;;;;8.52;5.80;;;;;;;20.13;55.61;94629.22;5041391;28;20585;-75
2023/06/02 07:05:33;;;;;;;13.70;6.10;;;;;;;20.13;56.16;94631.84;5041629;28;20021;-77
2023/06/02 07:07:59;;;;;;;9.00;6.00;;;;;;;20.12;55.55;94643.41;5008908;28;20502;-77
2023/06/02 07:10:24;;;;;;;6.90;5.53;;;;;;;20.57;54.06;94620.25;5026068;28;20514;-77
2023/06/02 07:12:50;;;;;;;9.15;5.88;;;;;;;20.95;51.81;94629.41;5023376;28;20491;-78
2023/06/02 07:15:18;;;;;;;6.38;5.05;;;;;;;20.75;52.50;94637.22;5044220;28;20028;-79
2023/06/02 07:17:43;;;;;;;7.45;5.30;;;;;;;21.16;52.56;94632.94;5038647;28;20143;-79
2023/06/02 07:20:10;;;;;;;10.68;5.68;;;;;;;21.02;52.92;94632.06;5031001;28;20518;-79
2023/06/02 07:22:36;;;;;;;7.25;5.55;;;;;;;21.11;52.30;94641.44;5044529;28;20044;-79
2023/06/02 07:25:05;;;;;;;6.40;5.80;;;;;;;21.47;52.60;94639.59;5029626;28;20240;-78
2023/06/02 07:27:31;;;;;;;7.18;5.55;;;;;;;21.80;49.77;94644.97;5045587;28;20025;-79
2023/06/02 07:29:56;;;;;;;11.75;5.53;;;;;;;21.74;50.22;94651.88;5020882;28;20423;-78
2023/06/02 07:32:22;;;;;;;9.43;5.57;;;;;;;21.86;50.31;94649.47;5044069;28;20029;-79
2023/06/02 07:34:47;;;;;;;6.78;5.20;;;;;;;21.85;50.96;94646.00;5039461;28;20095;-80
2023/06/02 07:37:13;;;;;;;9.82;6.10;;;;;;;21.41;52.78;94652.59;5026085;28;20082;-77
2023/06/02 07:39:38;;;;;;;8.93;6.22;;;;;;;21.44;53.41;94653.22;5044275;28;20033;-78
2023/06/02 07:42:04;;;;;;;6.82;5.47;;;;;;;21.72;52.16;94643.31;5045940;28;20040;-79
2023/06/02 07:44:30;;;;;;;10.30;6.20;;;;;;;21.63;53.06;94649.81;5046001;28;20036;-77
2023/06/02 07:46:55;;;;;;;8.27;5.22;;;;;;;21.70;52.74;94641.91;5023319;28;20044;-77
2023/06/02 07:49:21;;;;;;;10.57;5.93;;;;;;;21.59;53.22;94643.28;5026729;28;20095;-79
2023/06/02 07:51:46;;;;;;;8.85;5.78;;;;;;;21.60;53.30;94651.03;5027751;28;21721;-78
2023/06/02 07:54:11;;;;;;;6.75;5.47;;;;;;;21.19;52.78;94562.06;5027728;28;20534;-79
2023/06/02 07:56:37;;;;;;;8.52;5.13;;;;;;;21.94;53.37;94645.81;5029402;28;20631;-79
2023/06/02 07:59:02;;;;;;;6.18;5.15;;;;;;;22.14;53.53;94648.47;5011454;28;20434;-77
2023/06/02 08:01:28;;;;;;;8.15;5.20;;;;;;;22.16;53.36;94651.75;5029407;28;20029;-77
2023/06/02 08:03:53;;;;;;;7.78;5.50;;;;;;;22.30;53.33;94646.28;5044639;28;20029;-77
2023/06/02 08:06:19;;;;;;;7.88;5.18;;;;;;;22.63;51.71;94644.66;5028997;28;20035;-77
2023/06/02 08:08:45;;;;;;;6.57;5.47;;;;;;;22.92;52.02;94643.38;5028725;28;20033;-79
2023/06/02 08:11:11;;;;;;;7.25;5.57;;;;;;;22.93;51.06;94629.13;5045288;28;20049;-77
2023/06/02 08:13:37;;;;;;;6.47;4.82;;;;;;;22.83;50.21;94632.19;5025655;28;20033;-77
2023/06/02 08:16:02;;;;;;;7.47;5.25;;;;;;;22.68;50.75;94626.31;5047057;28;20514;-79
2023/06/02 08:18:28;;;;;;;6.45;5.40;;;;;;;22.62;50.13;94625.31;5040076;28;20067;-79
2023/06/02 08:20:53;;;;;;;6.70;4.65;;;;;;;22.81;50.81;94614.88;5047010;28;20468;-79
2023/06/02 08:23:20;;;;;;;7.70;4.78;;;;;;;22.78;49.54;94621.41;5042960;28;20626;-79
2023/06/02 08:25:46;;;;;;;10.52;5.20;;;;;;;22.73;50.12;94615.91;5049534;28;20032;-79
2023/06/02 08:28:13;;;;;;;9.10;5.22;;;;;;;22.94;49.25;94614.84;5030446;28;20025;-79
2023/06/02 08:30:41;;;;;;;9.65;5.32;;;;;;;22.66;49.31;94613.28;5050851;28;20041;-79
2023/06/02 08:33:10;;;;;;;6.35;5.18;;;;;;;22.46;50.03;94597.44;5028987;28;20090;-78
2023/06/02 08:35:38;;;;;;;7.40;4.93;;;;;;;22.55;51.80;94608.63;5027460;28;20087;-78
2023/06/02 08:38:07;;;;;;;8.38;5.20;;;;;;;22.42;51.78;94605.97;5048531;28;20111;-78
2023/06/02 08:40:38;;;;;;;9.20;4.97;;;;;;;22.15;50.86;94599.84;5016534;28;20045;-78
2023/06/02 08:43:06;;;;;;;5.78;4.70;;;;;;;22.30;52.95;94600.50;5029080;28;20496;-78
2023/06/02 08:45:31;;;;;;;7.15;4.93;;;;;;;22.27;55.68;94599.06;5049631;28;20040;-78
2023/06/02 08:47:57;;;;;;;9.40;5.50;;;;;;;21.74;52.19;94595.56;5049368;28;20021;-78
2023/06/02 08:50:27;;;;;;;7.03;5.03;;;;;;;21.89;51.79;94590.88;5031998;28;20033;-78
2023/06/02 08:52:52;;;;;;;7.88;5.60;;;;;;;21.83;52.14;94591.69;5029558;28;20475;-78
2023/06/02 08:55:18;;;;;;;8.35;5.82;;;;;;;21.58;52.47;94579.06;5048714;28;20078;-79
2023/06/02 08:57:48;;;;;;;9.77;6.13;;;;;;;21.86;52.88;94589.47;5015070;28;20458;-78
2023/06/02 09:00:15;;;;;;;8.80;5.75;;;;;;;21.70;52.78;94592.47;5032872;28;20024;-79
2023/06/02 09:02:46;;;;;;;9.20;5.95;;;;;;;21.64;52.35;94580.88;5046210;28;20407;-79
2023/06/02 09:05:13;;;;;;;9.57;5.45;;;;;;;21.75;52.69;94578.69;5049292;28;20074;-78
2023/06/02 09:07:39;;;;;;;7.38;5.32;;;;;;;21.80;52.76;94577.06;5032149;28;20052;-79
2023/06/02 09:10:06;;;;;;;6.68;5.25;;;;;;;21.89;52.61;94574.22;5047899;28;20044;-78
2023/06/02 09:12:50;;;;;;;6.68;4.95;;;;;;;21.96;52.42;94569.75;5045728;28;20037;-78
2023/06/02 09:15:16;;;;;;;7.15;5.15;;;;;;;21.79;50.58;94566.69;5050486;28;20033;-79
2023/06/02 09:17:41;;;;;;;8.80;5.47;;;;;;;22.00;51.51;94566.47;5043911;28;20033;-79
2023/06/02 09:20:10;;;;;;;8.82;5.25;;;;;;;22.20;51.98;94561.22;5039195;28;20052;-79
2023/06/02 09:22:54;;;;;;;8.20;5.35;;;;;;;22.57;51.90;94564.22;5044749;28;20120;-79
2023/06/02 09:25:40;;;;;;;5.88;5.15;;;;;;;23.02;50.60;94558.22;5039466;28;20041;-79
2023/06/02 09:28:07;;;;;;;7.82;5.22;;;;;;;23.01;50.29;94552.09;5031927;28;20184;-79
2023/06/02 09:30:35;;;;;;;6.25;4.88;;;;;;;22.89;49.46;94559.84;5031872;28;20048;-80
2023/06/02 09:33:06;;;;;;;8.60;5.05;;;;;;;22.84;48.71;94556.19;5047367;28;20103;-79
2023/06/02 09:35:40;;;;;;;6.72;4.75;;;;;;;23.37;49.27;94543.59;5047947;28;20099;-79
2023/06/02 09:38:07;;;;;;;7.93;5.15;;;;;;;23.33;48.90;94546.88;5031580;28;20065;-79
2023/06/02 09:40:34;;;;;;;7.57;4.55;;;;;;;23.40;47.51;94545.81;5031921;28;20057;-79
2023/06/02 09:43:08;;;;;;;7.10;4.53;;;;;;;23.39;45.36;94554.75;5030108;28;20033;-79
2023/06/02 09:45:54;;;;;;;5.10;4.20;;;;;;;23.37;46.22;94538.28;5029795;28;20064;-79
2023/06/02 09:48:23;;;;;;;7.63;4.72;;;;;;;23.18;45.38;94540.00;5041741;28;20037;-78
2023/06/02 09:50:48;;;;;;;5.18;4.10;;;;;;;23.38;45.49;94531.16;5024483;28;20095;-78
2023/06/02 09:53:15;;;;;;;5.25;4.18;;;;;;;23.46;44.56;94522.09;5038490;28;20446;-78
2023/06/02 09:55:41;;;;;;;5.03;4.00;;;;;;;23.63;44.17;94533.84;5035489;28;20495;-78
2023/06/02 09:58:07;;;;;;;4.93;3.95;;;;;;;23.57;42.15;94519.59;5044479;28;20032;-78
2023/06/02 10:00:33;;;;;;;7.32;4.15;;;;;;;23.76;42.57;94525.81;5042755;28;20501;-78
2023/06/02 10:02:59;;;;;;;5.65;4.10;;;;;;;24.14;44.41;94524.09;5034682;28;20024;-78
2023/06/02 10:05:24;;;;;;;6.38;4.10;;;;;;;23.98;42.31;94523.59;5034899;28;20427;-78
2023/06/02 10:08:27;;;;;;;5.20;4.03;;;;;;;23.91;41.97;94522.03;5037533;28;20037;-78
2023/06/02 10:10:56;;;;;;;6.88;4.07;;;;;;;24.03;40.61;94523.75;5032288;28;20057;-78
2023/06/02 10:13:32;;;;;;;5.03;3.65;;;;;;;24.19;39.04;94518.94;5031265;28;20470;-78
2023/06/02 10:16:01;;;;;;;4.78;3.45;;;;;;;24.28;39.18;94507.81;5038190;28;20517;-78
2023/06/02 10:18:36;;;;;;;5.75;3.42;;;;;;;24.37;39.94;94505.69;5034240;28;20037;-78
2023/06/02 10:21:31;;;;;;;4.20;3.42;;;;;;;24.49;39.27;94506.63;5052076;28;20424;-77
2023/06/02 10:24:05;;;;;;;3.97;3.55;;;;;;;24.33;38.38;94509.00;5050931;28;20090;-78
2023/06/02 10:26:45;;;;;;;4.63;3.25;;;;;;;24.18;39.01;94504.03;5033758;28;20029;-78
2023/06/02 10:29:11;;;;;;;7.68;3.78;;;;;;;24.23;39.26;94498.88;5032178;28;20037;-78
2023/06/02 10:31:37;;;;;;;4.32;3.50;;;;;;;24.13;39.63;94498.59;5014075;28;20033;-78
2023/06/02 10:34:03;;;;;;;5.13;3.75;;;;;;;24.15;40.78;94488.56;5014965;28;20040;-78
2023/06/02 10:36:48;;;;;;;4.40;3.50;;;;;;;24.40;40.06;94499.94;5017299;28;20048;-77
2023/06/02 10:39:41;;;;;;;6.57;3.53;;;;;;;23.55;39.62;94500.44;5021555;28;20052;-78
2023/06/02 10:42:11;;;;;;;6.30;4.07;;;;;;;23.60;43.71;94503.28;5046521;28;20469;-78
2023/06/02 10:44:36;;;;;;;6.90;3.70;;;;;;;23.62;44.99;94490.63;5028805;28;20021;-78
2023/06/02 10:47:17;;;;;;;7.30;4.20;;;;;;;23.73;43.34;94494.41;5033063;28;20037;-78
2023/06/02 10:50:02;;;;;;;4.80;3.70;;;;;;;23.60;43.99;94487.38;5043787;28;20037;-78
2023/06/02 10:52:32;;;;;;;5.45;4.10;;;;;;;23.56;43.55;94491.44;5025821;28;20431;-78
2023/06/02 10:55:06;;;;;;;6.32;3.72;;;;;;;23.55;44.63;94489.84;5027491;28;20036;-78
2023/06/02 10:57:50;;;;;;;5.10;3.90;;;;;;;23.62;44.79;94480.00;5045639;28;20037;-78
2023/06/02 11:00:39;;;;;;;5.07;3.67;;;;;;;23.51;43.50;94480.69;5038526;28;20073;-78
2023/06/02 11:03:26;;;;;;;5.85;4.20;;;;;;;23.40;44.14;94482.22;5036636;28;20029;-78
2023/06/02 11:06:13;;;;;;;6.80;3.72;;;;;;;23.36;44.95;94475.69;5038847;28;20037;-78
2023/06/02 11:08:39;;;;;;;7.22;4.15;;;;;;;23.44;45.73;94479.13;5025042;28;20069;-78
2023/06/02 11:11:07;;;;;;;5.22;3.90;;;;;;;23.65;43.22;94468.13;5043240;28;20052;-78
2023/06/02 11:13:56;;;;;;;4.30;3.75;;;;;;;23.95;42.77;94481.59;5035653;28;20040;-79
2023/06/02 11:16:22;;;;;;;5.80;4.05;;;;;;;23.89;43.49;94474.50;5045668;28;20517;-78
2023/06/02 11:18:50;;;;;;;7.18;3.80;;;;;;;23.87;43.90;94465.94;5045334;28;20029;-78
2023/06/02 11:21:20;;;;;;;5.43;3.70;;;;;;;23.97;42.57;94478.72;5012529;28;20056;-78
2023/06/02 11:23:45;;;;;;;4.88;3.40;;;;;;;24.20;42.00;94455.03;5020857;28;20048;-79
2023/06/02 11:26:16;;;;;;;4.15;3.65;;;;;;;24.34;41.70;94463.66;5045873;28;20509;-78
2023/06/02 11:28:44;;;;;;;6.22;3.63;;;;;;;24.53;39.74;94460.00;5029521;28;20048;-78
2023/06/02 11:31:17;;;;;;;5.22;3.88;;;;;;;24.58;40.53;94459.34;5030263;28;20032;-78
2023/06/02 11:33:51;;;;;;;5.40;3.78;;;;;;;24.68;39.86;94458.81;5027167;28;20045;-79
2023/06/02 11:36:28;;;;;;;4.18;3.53;;;;;;;24.50;39.28;94444.53;5038143;28;20032;-79